sensor_id;sensor_type;location;lat;lon;timestamp;P1;durP1;ratioP1;P2;durP2;ratioP2
5898;SDS011;2975;50.956;6.962;2022-11-25T00:02:17;6.20;;;2.17;;
5898;SDS011;2975;50.956;6.962;2022-11-25T00:04:44;7.83;;;2.60;;
5898;SDS011;2975;50.956;6.962;2022-11-25T00:07:09;10.87;;;2.23;;
5898;SDS011;2975;50.956;6.962;2022-11-25T00:09:35;11.73;;;2.60;;
5898;SDS011;2975;50.956;6.962;2022-11-25T00:12:00;9.13;;;4.00;;
5898;SDS011;2975;50.956;6.962;2022-11-25T00:14:26;8.10;;;2.33;;
5898;SDS011;2975;50.956;6.962;2022-11-25T00:16:52;10.83;;;2.93;;
5898;SDS011;2975;50.956;6.962;2022-11-25T00:19:17;9.27;;;2.30;;
5898;SDS011;2975;50.956;6.962;2022-11-25T00:21:43;10.77;;;2.50;;
5898;SDS011;2975;50.956;6.962;2022-11-25T00:24:08;9.20;;;2.33;;
5898;SDS011;2975;50.956;6.962;2022-11-25T00:26:37;8.40;;;2.43;;
5898;SDS011;2975;50.956;6.962;2022-11-25T00:29:03;12.97;;;3.20;;
5898;SDS011;2975;50.956;6.962;2022-11-25T00:31:31;9.43;;;2.30;;
5898;SDS011;2975;50.956;6.962;2022-11-25T00:33:58;6.90;;;1.73;;
5898;SDS011;2975;50.956;6.962;2022-11-25T00:36:25;8.63;;;2.60;;
5898;SDS011;2975;50.956;6.962;2022-11-25T00:38:53;8.30;;;2.00;;
5898;SDS011;2975;50.956;6.962;2022-11-25T00:41:27;9.03;;;2.73;;
5898;SDS011;2975;50.956;6.962;2022-11-25T00:44:12;13.67;;;2.73;;
5898;SDS011;2975;50.956;6.962;2022-11-25T00:46:58;13.40;;;2.60;;
5898;SDS011;2975;50.956;6.962;2022-11-25T00:49:24;11.00;;;2.33;;
5898;SDS011;2975;50.956;6.962;2022-11-25T00:51:50;12.70;;;3.83;;
5898;SDS011;2975;50.956;6.962;2022-11-25T00:54:16;10.37;;;3.87;;
5898;SDS011;2975;50.956;6.962;2022-11-25T00:56:41;11.00;;;2.77;;
5898;SDS011;2975;50.956;6.962;2022-11-25T00:59:07;8.47;;;2.57;;
5898;SDS011;2975;50.956;6.962;2022-11-25T01:01:33;9.40;;;2.63;;
5898;SDS011;2975;50.956;6.962;2022-11-25T01:03:59;13.43;;;2.87;;
5898;SDS011;2975;50.956;6.962;2022-11-25T01:06:25;10.10;;;2.73;;
5898;SDS011;2975;50.956;6.962;2022-11-25T01:08:51;7.00;;;2.33;;
5898;SDS011;2975;50.956;6.962;2022-11-25T01:11:18;8.40;;;2.63;;
5898;SDS011;2975;50.956;6.962;2022-11-25T01:13:46;9.43;;;2.53;;
5898;SDS011;2975;50.956;6.962;2022-11-25T01:16:16;9.93;;;2.67;;
5898;SDS011;2975;50.956;6.962;2022-11-25T01:18:44;10.63;;;2.50;;
5898;SDS011;2975;50.956;6.962;2022-11-25T01:21:10;11.77;;;3.00;;
5898;SDS011;2975;50.956;6.962;2022-11-25T01:23:50;7.00;;;2.50;;
5898;SDS011;2975;50.956;6.962;2022-11-25T01:26:18;10.23;;;2.53;;
5898;SDS011;2975;50.956;6.962;2022-11-25T01:28:46;7.30;;;2.47;;
5898;SDS011;2975;50.956;6.962;2022-11-25T01:31:15;14.17;;;2.83;;
5898;SDS011;2975;50.956;6.962;2022-11-25T01:33:43;9.27;;;2.20;;
5898;SDS011;2975;50.956;6.962;2022-11-25T01:36:10;12.17;;;2.10;;
5898;SDS011;2975;50.956;6.962;2022-11-25T01:38:38;7.17;;;2.30;;
5898;SDS011;2975;50.956;6.962;2022-11-25T01:41:05;6.97;;;2.50;;
5898;SDS011;2975;50.956;6.962;2022-11-25T01:43:32;13.07;;;2.80;;
5898;SDS011;2975;50.956;6.962;2022-11-25T01:48:55;10.10;;;2.27;;
5898;SDS011;2975;50.956;6.962;2022-11-25T01:51:39;6.47;;;2.47;;
5898;SDS011;2975;50.956;6.962;2022-11-25T01:54:13;9.67;;;2.20;;
5898;SDS011;2975;50.956;6.962;2022-11-25T01:56:43;6.73;;;2.20;;
5898;SDS011;2975;50.956;6.962;2022-11-25T01:59:16;6.43;;;2.10;;
5898;SDS011;2975;50.956;6.962;2022-11-25T02:01:42;9.40;;;2.47;;
5898;SDS011;2975;50.956;6.962;2022-11-25T02:04:07;10.03;;;2.30;;
5898;SDS011;2975;50.956;6.962;2022-11-25T02:06:36;8.63;;;2.53;;
5898;SDS011;2975;50.956;6.962;2022-11-25T02:09:06;8.77;;;2.47;;
5898;SDS011;2975;50.956;6.962;2022-11-25T02:11:34;5.27;;;2.30;;
5898;SDS011;2975;50.956;6.962;2022-11-25T02:14:02;10.53;;;2.47;;
5898;SDS011;2975;50.956;6.962;2022-11-25T02:16:29;11.00;;;3.23;;
5898;SDS011;2975;50.956;6.962;2022-11-25T02:18:54;9.70;;;2.67;;
5898;SDS011;2975;50.956;6.962;2022-11-25T02:21:24;11.57;;;2.63;;
5898;SDS011;2975;50.956;6.962;2022-11-25T02:23:58;10.23;;;2.30;;
5898;SDS011;2975;50.956;6.962;2022-11-25T02:26:44;11.90;;;2.53;;
5898;SDS011;2975;50.956;6.962;2022-11-25T02:29:10;9.47;;;3.13;;
5898;SDS011;2975;50.956;6.962;2022-11-25T02:31:36;8.80;;;2.80;;
5898;SDS011;2975;50.956;6.962;2022-11-25T02:34:02;6.83;;;2.93;;
5898;SDS011;2975;50.956;6.962;2022-11-25T02:36:27;10.63;;;2.30;;
5898;SDS011;2975;50.956;6.962;2022-11-25T02:38:57;9.23;;;2.93;;
5898;SDS011;2975;50.956;6.962;2022-11-25T02:41:31;8.87;;;2.47;;
5898;SDS011;2975;50.956;6.962;2022-11-25T02:43:59;10.40;;;3.20;;
5898;SDS011;2975;50.956;6.962;2022-11-25T02:46:26;5.93;;;2.57;;
5898;SDS011;2975;50.956;6.962;2022-11-25T02:48:52;10.00;;;2.77;;
5898;SDS011;2975;50.956;6.962;2022-11-25T02:51:20;9.00;;;2.73;;
5898;SDS011;2975;50.956;6.962;2022-11-25T02:53:48;8.77;;;2.27;;
5898;SDS011;2975;50.956;6.962;2022-11-25T02:56:15;10.23;;;3.37;;
5898;SDS011;2975;50.956;6.962;2022-11-25T02:58:41;10.43;;;2.20;;
5898;SDS011;2975;50.956;6.962;2022-11-25T03:01:07;11.57;;;2.43;;
5898;SDS011;2975;50.956;6.962;2022-11-25T03:06:36;9.73;;;2.33;;
5898;SDS011;2975;50.956;6.962;2022-11-25T03:09:02;10.63;;;3.27;;
5898;SDS011;2975;50.956;6.962;2022-11-25T03:11:28;9.10;;;3.43;;
5898;SDS011;2975;50.956;6.962;2022-11-25T03:14:13;11.80;;;2.87;;
5898;SDS011;2975;50.956;6.962;2022-11-25T03:16:38;8.97;;;2.27;;
5898;SDS011;2975;50.956;6.962;2022-11-25T03:19:04;9.37;;;2.40;;
5898;SDS011;2975;50.956;6.962;2022-11-25T03:21:29;10.90;;;2.80;;
5898;SDS011;2975;50.956;6.962;2022-11-25T03:23:55;8.37;;;2.10;;
5898;SDS011;2975;50.956;6.962;2022-11-25T03:26:21;11.87;;;2.77;;
5898;SDS011;2975;50.956;6.962;2022-11-25T03:28:46;10.17;;;2.57;;
5898;SDS011;2975;50.956;6.962;2022-11-25T03:31:12;10.90;;;3.43;;
5898;SDS011;2975;50.956;6.962;2022-11-25T03:33:37;9.40;;;3.00;;
5898;SDS011;2975;50.956;6.962;2022-11-25T03:36:03;9.67;;;2.37;;
5898;SDS011;2975;50.956;6.962;2022-11-25T03:38:28;10.17;;;4.00;;
5898;SDS011;2975;50.956;6.962;2022-11-25T03:40:54;8.77;;;2.23;;
5898;SDS011;2975;50.956;6.962;2022-11-25T03:43:20;8.60;;;2.40;;
5898;SDS011;2975;50.956;6.962;2022-11-25T03:45:48;10.67;;;2.20;;
5898;SDS011;2975;50.956;6.962;2022-11-25T03:48:14;9.87;;;2.67;;
5898;SDS011;2975;50.956;6.962;2022-11-25T03:50:40;11.10;;;2.60;;
5898;SDS011;2975;50.956;6.962;2022-11-25T03:53:06;9.03;;;2.73;;
5898;SDS011;2975;50.956;6.962;2022-11-25T03:55:32;11.27;;;2.63;;
5898;SDS011;2975;50.956;6.962;2022-11-25T03:57:58;11.47;;;2.80;;
5898;SDS011;2975;50.956;6.962;2022-11-25T04:00:25;10.87;;;2.40;;
5898;SDS011;2975;50.956;6.962;2022-11-25T04:02:51;12.03;;;2.70;;
5898;SDS011;2975;50.956;6.962;2022-11-25T04:05:17;8.43;;;2.30;;
5898;SDS011;2975;50.956;6.962;2022-11-25T04:07:42;9.63;;;2.60;;
5898;SDS011;2975;50.956;6.962;2022-11-25T04:10:08;6.07;;;2.10;;
5898;SDS011;2975;50.956;6.962;2022-11-25T04:12:34;6.20;;;2.47;;
5898;SDS011;2975;50.956;6.962;2022-11-25T04:15:12;4.73;;;2.23;;
5898;SDS011;2975;50.956;6.962;2022-11-25T04:17:42;12.53;;;2.43;;
5898;SDS011;2975;50.956;6.962;2022-11-25T04:20:08;8.23;;;2.10;;
5898;SDS011;2975;50.956;6.962;2022-11-25T04:22:34;12.37;;;2.60;;
5898;SDS011;2975;50.956;6.962;2022-11-25T04:25:00;9.23;;;2.63;;
5898;SDS011;2975;50.956;6.962;2022-11-25T04:27:25;9.93;;;2.97;;
5898;SDS011;2975;50.956;6.962;2022-11-25T04:29:51;8.73;;;2.00;;
5898;SDS011;2975;50.956;6.962;2022-11-25T04:32:17;7.10;;;2.30;;
5898;SDS011;2975;50.956;6.962;2022-11-25T04:34:43;7.20;;;2.53;;
5898;SDS011;2975;50.956;6.962;2022-11-25T04:37:08;8.57;;;2.40;;
5898;SDS011;2975;50.956;6.962;2022-11-25T04:39:34;11.57;;;2.87;;
5898;SDS011;2975;50.956;6.962;2022-11-25T04:41:59;7.70;;;1.93;;
5898;SDS011;2975;50.956;6.962;2022-11-25T04:44:43;11.97;;;2.43;;
5898;SDS011;2975;50.956;6.962;2022-11-25T04:47:09;8.73;;;2.53;;
5898;SDS011;2975;50.956;6.962;2022-11-25T04:49:35;7.40;;;2.40;;
5898;SDS011;2975;50.956;6.962;2022-11-25T04:52:00;9.73;;;2.47;;
5898;SDS011;2975;50.956;6.962;2022-11-25T04:54:26;7.93;;;2.03;;
5898;SDS011;2975;50.956;6.962;2022-11-25T04:56:51;8.03;;;2.63;;
5898;SDS011;2975;50.956;6.962;2022-11-25T04:59:17;10.67;;;2.93;;
5898;SDS011;2975;50.956;6.962;2022-11-25T05:02:01;7.77;;;2.30;;
5898;SDS011;2975;50.956;6.962;2022-11-25T05:04:26;9.37;;;2.60;;
5898;SDS011;2975;50.956;6.962;2022-11-25T05:06:52;9.00;;;2.87;;
5898;SDS011;2975;50.956;6.962;2022-11-25T05:09:18;6.50;;;2.03;;
5898;SDS011;2975;50.956;6.962;2022-11-25T05:11:43;12.47;;;3.03;;
5898;SDS011;2975;50.956;6.962;2022-11-25T05:14:09;12.20;;;2.63;;
5898;SDS011;2975;50.956;6.962;2022-11-25T05:16:34;7.20;;;2.53;;
5898;SDS011;2975;50.956;6.962;2022-11-25T05:19:00;9.20;;;2.80;;
5898;SDS011;2975;50.956;6.962;2022-11-25T05:21:25;7.67;;;2.40;;
5898;SDS011;2975;50.956;6.962;2022-11-25T05:23:52;9.03;;;2.87;;
5898;SDS011;2975;50.956;6.962;2022-11-25T05:26:18;6.67;;;2.50;;
5898;SDS011;2975;50.956;6.962;2022-11-25T05:28:43;9.47;;;2.73;;
5898;SDS011;2975;50.956;6.962;2022-11-25T05:31:09;7.40;;;2.53;;
5898;SDS011;2975;50.956;6.962;2022-11-25T05:33:35;11.03;;;2.63;;
5898;SDS011;2975;50.956;6.962;2022-11-25T05:36:01;6.97;;;2.40;;
5898;SDS011;2975;50.956;6.962;2022-11-25T05:38:28;9.17;;;2.53;;
5898;SDS011;2975;50.956;6.962;2022-11-25T05:40:59;8.93;;;2.50;;
5898;SDS011;2975;50.956;6.962;2022-11-25T05:43:26;9.60;;;2.70;;
5898;SDS011;2975;50.956;6.962;2022-11-25T05:45:52;11.80;;;2.77;;
5898;SDS011;2975;50.956;6.962;2022-11-25T05:48:17;11.27;;;3.20;;
5898;SDS011;2975;50.956;6.962;2022-11-25T05:50:43;11.30;;;2.70;;
5898;SDS011;2975;50.956;6.962;2022-11-25T05:53:08;8.60;;;2.67;;
5898;SDS011;2975;50.956;6.962;2022-11-25T05:55:35;10.93;;;2.80;;
5898;SDS011;2975;50.956;6.962;2022-11-25T05:58:01;10.40;;;2.47;;
5898;SDS011;2975;50.956;6.962;2022-11-25T06:00:30;9.50;;;2.37;;
5898;SDS011;2975;50.956;6.962;2022-11-25T06:02:56;8.23;;;2.40;;
5898;SDS011;2975;50.956;6.962;2022-11-25T06:05:21;8.60;;;2.57;;
5898;SDS011;2975;50.956;6.962;2022-11-25T06:07:47;7.83;;;2.40;;
5898;SDS011;2975;50.956;6.962;2022-11-25T06:10:13;6.67;;;2.53;;
5898;SDS011;2975;50.956;6.962;2022-11-25T06:12:40;6.23;;;2.43;;
5898;SDS011;2975;50.956;6.962;2022-11-25T06:15:06;10.07;;;2.63;;
5898;SDS011;2975;50.956;6.962;2022-11-25T06:17:32;7.03;;;2.93;;
5898;SDS011;2975;50.956;6.962;2022-11-25T06:19:57;7.43;;;2.77;;
5898;SDS011;2975;50.956;6.962;2022-11-25T06:22:23;7.13;;;2.50;;
5898;SDS011;2975;50.956;6.962;2022-11-25T06:24:49;9.83;;;2.70;;
5898;SDS011;2975;50.956;6.962;2022-11-25T06:27:14;11.13;;;3.13;;
5898;SDS011;2975;50.956;6.962;2022-11-25T06:29:40;8.90;;;4.07;;
5898;SDS011;2975;50.956;6.962;2022-11-25T06:32:05;5.53;;;2.73;;
5898;SDS011;2975;50.956;6.962;2022-11-25T06:34:31;10.77;;;2.83;;
5898;SDS011;2975;50.956;6.962;2022-11-25T06:36:56;7.57;;;2.77;;
5898;SDS011;2975;50.956;6.962;2022-11-25T06:39:22;13.13;;;2.90;;
5898;SDS011;2975;50.956;6.962;2022-11-25T06:41:48;6.90;;;2.93;;
5898;SDS011;2975;50.956;6.962;2022-11-25T06:44:13;11.43;;;3.03;;
5898;SDS011;2975;50.956;6.962;2022-11-25T06:46:39;9.93;;;3.00;;
5898;SDS011;2975;50.956;6.962;2022-11-25T06:49:04;10.97;;;2.77;;
5898;SDS011;2975;50.956;6.962;2022-11-25T06:51:31;10.17;;;3.00;;
5898;SDS011;2975;50.956;6.962;2022-11-25T06:53:57;5.70;;;2.77;;
5898;SDS011;2975;50.956;6.962;2022-11-25T06:56:24;9.30;;;3.00;;
5898;SDS011;2975;50.956;6.962;2022-11-25T06:58:51;11.20;;;3.23;;
5898;SDS011;2975;50.956;6.962;2022-11-25T07:01:22;7.57;;;2.70;;
5898;SDS011;2975;50.956;6.962;2022-11-25T07:03:50;8.17;;;3.67;;
5898;SDS011;2975;50.956;6.962;2022-11-25T07:06:18;8.27;;;3.00;;
5898;SDS011;2975;50.956;6.962;2022-11-25T07:08:44;8.60;;;3.27;;
5898;SDS011;2975;50.956;6.962;2022-11-25T07:11:15;9.33;;;3.33;;
5898;SDS011;2975;50.956;6.962;2022-11-25T07:13:41;7.37;;;2.40;;
5898;SDS011;2975;50.956;6.962;2022-11-25T07:16:07;11.00;;;3.30;;
5898;SDS011;2975;50.956;6.962;2022-11-25T07:18:34;5.13;;;2.83;;
5898;SDS011;2975;50.956;6.962;2022-11-25T07:21:02;9.17;;;3.17;;
5898;SDS011;2975;50.956;6.962;2022-11-25T07:23:29;12.47;;;3.20;;
5898;SDS011;2975;50.956;6.962;2022-11-25T07:25:54;7.73;;;2.90;;
5898;SDS011;2975;50.956;6.962;2022-11-25T07:28:24;10.97;;;3.47;;
5898;SDS011;2975;50.956;6.962;2022-11-25T07:30:50;10.63;;;3.47;;
5898;SDS011;2975;50.956;6.962;2022-11-25T07:33:16;10.73;;;2.93;;
5898;SDS011;2975;50.956;6.962;2022-11-25T07:35:41;6.53;;;2.80;;
5898;SDS011;2975;50.956;6.962;2022-11-25T07:38:07;11.33;;;3.00;;
5898;SDS011;2975;50.956;6.962;2022-11-25T07:40:32;5.77;;;2.63;;
5898;SDS011;2975;50.956;6.962;2022-11-25T07:42:58;8.93;;;3.57;;
5898;SDS011;2975;50.956;6.962;2022-11-25T07:45:24;8.23;;;3.17;;
5898;SDS011;2975;50.956;6.962;2022-11-25T07:47:49;8.37;;;3.40;;
5898;SDS011;2975;50.956;6.962;2022-11-25T07:50:16;11.30;;;3.43;;
5898;SDS011;2975;50.956;6.962;2022-11-25T07:52:42;10.23;;;3.00;;
5898;SDS011;2975;50.956;6.962;2022-11-25T07:55:07;8.03;;;3.40;;
5898;SDS011;2975;50.956;6.962;2022-11-25T07:57:33;6.90;;;3.50;;
5898;SDS011;2975;50.956;6.962;2022-11-25T07:59:59;8.90;;;3.23;;
5898;SDS011;2975;50.956;6.962;2022-11-25T08:02:24;9.30;;;3.67;;
5898;SDS011;2975;50.956;6.962;2022-11-25T08:04:50;14.27;;;3.20;;
5898;SDS011;2975;50.956;6.962;2022-11-25T08:07:16;13.83;;;3.80;;
5898;SDS011;2975;50.956;6.962;2022-11-25T08:09:41;10.40;;;4.87;;
5898;SDS011;2975;50.956;6.962;2022-11-25T08:12:07;10.23;;;3.70;;
5898;SDS011;2975;50.956;6.962;2022-11-25T08:14:32;11.47;;;4.30;;
5898;SDS011;2975;50.956;6.962;2022-11-25T08:16:59;13.90;;;3.93;;
5898;SDS011;2975;50.956;6.962;2022-11-25T08:19:24;8.03;;;3.40;;
5898;SDS011;2975;50.956;6.962;2022-11-25T08:21:50;9.77;;;4.03;;
5898;SDS011;2975;50.956;6.962;2022-11-25T08:24:17;10.67;;;3.50;;
5898;SDS011;2975;50.956;6.962;2022-11-25T08:26:44;12.60;;;3.93;;
5898;SDS011;2975;50.956;6.962;2022-11-25T08:29:14;10.27;;;3.50;;
5898;SDS011;2975;50.956;6.962;2022-11-25T08:31:41;9.87;;;5.53;;
5898;SDS011;2975;50.956;6.962;2022-11-25T08:34:07;15.93;;;7.90;;
5898;SDS011;2975;50.956;6.962;2022-11-25T08:36:35;24.47;;;5.93;;
5898;SDS011;2975;50.956;6.962;2022-11-25T08:39:03;11.27;;;4.30;;
5898;SDS011;2975;50.956;6.962;2022-11-25T08:41:32;14.67;;;3.83;;
5898;SDS011;2975;50.956;6.962;2022-11-25T08:43:59;11.60;;;3.97;;
5898;SDS011;2975;50.956;6.962;2022-11-25T08:46:27;9.33;;;3.63;;
5898;SDS011;2975;50.956;6.962;2022-11-25T08:48:55;10.80;;;3.77;;
5898;SDS011;2975;50.956;6.962;2022-11-25T08:51:21;9.17;;;4.03;;
5898;SDS011;2975;50.956;6.962;2022-11-25T08:53:49;12.90;;;4.50;;
5898;SDS011;2975;50.956;6.962;2022-11-25T08:56:18;8.73;;;3.13;;
5898;SDS011;2975;50.956;6.962;2022-11-25T08:58:45;9.07;;;3.70;;
5898;SDS011;2975;50.956;6.962;2022-11-25T09:01:12;7.20;;;3.10;;
5898;SDS011;2975;50.956;6.962;2022-11-25T09:03:39;7.90;;;3.23;;
5898;SDS011;2975;50.956;6.962;2022-11-25T09:06:08;8.00;;;3.40;;
5898;SDS011;2975;50.956;6.962;2022-11-25T09:08:35;10.33;;;4.13;;
5898;SDS011;2975;50.956;6.962;2022-11-25T09:11:01;6.10;;;3.17;;
5898;SDS011;2975;50.956;6.962;2022-11-25T09:13:27;10.47;;;4.27;;
5898;SDS011;2975;50.956;6.962;2022-11-25T09:15:53;6.50;;;3.07;;
5898;SDS011;2975;50.956;6.962;2022-11-25T09:18:19;7.67;;;3.03;;
5898;SDS011;2975;50.956;6.962;2022-11-25T09:20:49;9.80;;;3.27;;
5898;SDS011;2975;50.956;6.962;2022-11-25T09:23:15;7.63;;;3.00;;
5898;SDS011;2975;50.956;6.962;2022-11-25T09:25:41;7.77;;;3.57;;
5898;SDS011;2975;50.956;6.962;2022-11-25T09:28:06;12.27;;;3.47;;
5898;SDS011;2975;50.956;6.962;2022-11-25T09:30:33;7.67;;;3.43;;
5898;SDS011;2975;50.956;6.962;2022-11-25T09:32:59;8.83;;;4.17;;
5898;SDS011;2975;50.956;6.962;2022-11-25T09:35:24;13.83;;;3.83;;
5898;SDS011;2975;50.956;6.962;2022-11-25T09:37:50;9.80;;;4.00;;
5898;SDS011;2975;50.956;6.962;2022-11-25T09:40:18;12.00;;;3.77;;
5898;SDS011;2975;50.956;6.962;2022-11-25T09:42:50;16.90;;;3.90;;
5898;SDS011;2975;50.956;6.962;2022-11-25T09:46:18;9.70;;;3.87;;
5898;SDS011;2975;50.956;6.962;2022-11-25T09:52:15;7.47;;;3.80;;
5898;SDS011;2975;50.956;6.962;2022-11-25T09:54:23;7.93;;;3.23;;
5898;SDS011;2975;50.956;6.962;2022-11-25T09:57:16;10.50;;;3.53;;
5898;SDS011;2975;50.956;6.962;2022-11-25T10:00:16;10.27;;;4.10;;
5898;SDS011;2975;50.956;6.962;2022-11-25T10:02:44;12.73;;;3.27;;
5898;SDS011;2975;50.956;6.962;2022-11-25T10:05:35;6.67;;;2.73;;
5898;SDS011;2975;50.956;6.962;2022-11-25T10:08:07;6.97;;;3.00;;
5898;SDS011;2975;50.956;6.962;2022-11-25T10:10:40;6.57;;;2.53;;
5898;SDS011;2975;50.956;6.962;2022-11-25T10:13:12;9.00;;;2.83;;
5898;SDS011;2975;50.956;6.962;2022-11-25T10:15:43;6.73;;;2.10;;
5898;SDS011;2975;50.956;6.962;2022-11-25T10:18:24;4.03;;;2.17;;
5898;SDS011;2975;50.956;6.962;2022-11-25T10:20:55;7.00;;;2.13;;
5898;SDS011;2975;50.956;6.962;2022-11-25T10:23:29;8.47;;;2.20;;
5898;SDS011;2975;50.956;6.962;2022-11-25T10:25:58;5.57;;;1.67;;
5898;SDS011;2975;50.956;6.962;2022-11-25T10:28:31;8.27;;;2.27;;
5898;SDS011;2975;50.956;6.962;2022-11-25T10:36:25;9.07;;;1.90;;
5898;SDS011;2975;50.956;6.962;2022-11-25T10:41:21;12.70;;;2.13;;
5898;SDS011;2975;50.956;6.962;2022-11-25T10:43:50;4.67;;;1.60;;
5898;SDS011;2975;50.956;6.962;2022-11-25T10:49:19;8.60;;;1.60;;
5898;SDS011;2975;50.956;6.962;2022-11-25T10:51:54;8.07;;;2.17;;
5898;SDS011;2975;50.956;6.962;2022-11-25T10:54:27;7.50;;;1.97;;
5898;SDS011;2975;50.956;6.962;2022-11-25T10:57:00;8.57;;;2.03;;
5898;SDS011;2975;50.956;6.962;2022-11-25T10:59:34;11.53;;;2.40;;
5898;SDS011;2975;50.956;6.962;2022-11-25T11:05:15;10.93;;;2.60;;
5898;SDS011;2975;50.956;6.962;2022-11-25T11:07:39;7.80;;;1.87;;
5898;SDS011;2975;50.956;6.962;2022-11-25T11:10:17;9.33;;;1.87;;
5898;SDS011;2975;50.956;6.962;2022-11-25T11:15:27;9.13;;;2.17;;
5898;SDS011;2975;50.956;6.962;2022-11-25T11:17:58;5.33;;;1.40;;
5898;SDS011;2975;50.956;6.962;2022-11-25T11:20:37;8.37;;;2.13;;
5898;SDS011;2975;50.956;6.962;2022-11-25T11:23:11;8.40;;;2.00;;
5898;SDS011;2975;50.956;6.962;2022-11-25T11:25:41;9.83;;;3.13;;
5898;SDS011;2975;50.956;6.962;2022-11-25T11:39:22;9.10;;;2.10;;
5898;SDS011;2975;50.956;6.962;2022-11-25T11:44:36;8.07;;;2.73;;
5898;SDS011;2975;50.956;6.962;2022-11-25T11:47:22;7.13;;;2.43;;
5898;SDS011;2975;50.956;6.962;2022-11-25T12:03:52;17.03;;;2.40;;
5898;SDS011;2975;50.956;6.962;2022-11-25T12:06:27;15.40;;;2.53;;
5898;SDS011;2975;50.956;6.962;2022-11-25T12:08:59;10.70;;;2.50;;
5898;SDS011;2975;50.956;6.962;2022-11-25T12:11:49;9.07;;;2.67;;
5898;SDS011;2975;50.956;6.962;2022-11-25T12:14:30;13.93;;;2.43;;
5898;SDS011;2975;50.956;6.962;2022-11-25T12:17:12;14.47;;;2.77;;
5898;SDS011;2975;50.956;6.962;2022-11-25T12:19:46;12.37;;;2.30;;
5898;SDS011;2975;50.956;6.962;2022-11-25T12:22:23;8.67;;;2.37;;
5898;SDS011;2975;50.956;6.962;2022-11-25T12:25:19;7.30;;;2.40;;
5898;SDS011;2975;50.956;6.962;2022-11-25T12:28:22;14.77;;;2.70;;
5898;SDS011;2975;50.956;6.962;2022-11-25T12:33:48;10.43;;;2.33;;
5898;SDS011;2975;50.956;6.962;2022-11-25T12:39:43;12.80;;;2.67;;
5898;SDS011;2975;50.956;6.962;2022-11-25T12:42:07;16.20;;;2.90;;
5898;SDS011;2975;50.956;6.962;2022-11-25T12:47:13;9.10;;;2.47;;
5898;SDS011;2975;50.956;6.962;2022-11-25T12:49:44;14.53;;;2.60;;
5898;SDS011;2975;50.956;6.962;2022-11-25T12:55:11;10.33;;;2.67;;
5898;SDS011;2975;50.956;6.962;2022-11-25T13:09:25;13.90;;;2.60;;
5898;SDS011;2975;50.956;6.962;2022-11-25T13:12:39;12.27;;;2.30;;
5898;SDS011;2975;50.956;6.962;2022-11-25T13:15:25;14.97;;;3.13;;
5898;SDS011;2975;50.956;6.962;2022-11-25T13:17:59;12.17;;;3.67;;
5898;SDS011;2975;50.956;6.962;2022-11-25T13:20:32;9.93;;;2.30;;
5898;SDS011;2975;50.956;6.962;2022-11-25T13:23:03;14.33;;;2.83;;
5898;SDS011;2975;50.956;6.962;2022-11-25T13:25:35;11.53;;;2.37;;
5898;SDS011;2975;50.956;6.962;2022-11-25T13:28:09;6.97;;;1.83;;
5898;SDS011;2975;50.956;6.962;2022-11-25T13:36:20;9.87;;;2.53;;
5898;SDS011;2975;50.956;6.962;2022-11-25T13:46:41;7.80;;;2.00;;
5898;SDS011;2975;50.956;6.962;2022-11-25T13:49:20;7.40;;;2.63;;
5898;SDS011;2975;50.956;6.962;2022-11-25T13:51:56;12.67;;;2.40;;
5898;SDS011;2975;50.956;6.962;2022-11-25T13:55:20;14.80;;;2.20;;
5898;SDS011;2975;50.956;6.962;2022-11-25T13:57:23;8.47;;;2.10;;
5898;SDS011;2975;50.956;6.962;2022-11-25T14:02:39;5.43;;;1.60;;
5898;SDS011;2975;50.956;6.962;2022-11-25T14:08:10;9.37;;;1.70;;
5898;SDS011;2975;50.956;6.962;2022-11-25T14:13:39;14.63;;;2.67;;
5898;SDS011;2975;50.956;6.962;2022-11-25T14:16:23;6.60;;;2.10;;
5898;SDS011;2975;50.956;6.962;2022-11-25T14:24:45;8.13;;;2.37;;
5898;SDS011;2975;50.956;6.962;2022-11-25T14:27:24;7.07;;;1.93;;
5898;SDS011;2975;50.956;6.962;2022-11-25T14:29:52;8.90;;;2.10;;
5898;SDS011;2975;50.956;6.962;2022-11-25T14:32:43;7.40;;;2.53;;
5898;SDS011;2975;50.956;6.962;2022-11-25T14:35:52;8.03;;;1.90;;
5898;SDS011;2975;50.956;6.962;2022-11-25T14:38:25;7.77;;;1.83;;
5898;SDS011;2975;50.956;6.962;2022-11-25T14:43:29;6.10;;;2.10;;
5898;SDS011;2975;50.956;6.962;2022-11-25T14:46:16;7.90;;;2.50;;
5898;SDS011;2975;50.956;6.962;2022-11-25T14:48:51;15.80;;;2.53;;
5898;SDS011;2975;50.956;6.962;2022-11-25T14:51:18;7.47;;;2.43;;
5898;SDS011;2975;50.956;6.962;2022-11-25T14:53:45;9.90;;;2.37;;
5898;SDS011;2975;50.956;6.962;2022-11-25T14:56:13;11.83;;;2.63;;
5898;SDS011;2975;50.956;6.962;2022-11-25T14:58:40;8.50;;;2.63;;
5898;SDS011;2975;50.956;6.962;2022-11-25T15:03:50;12.27;;;2.47;;
5898;SDS011;2975;50.956;6.962;2022-11-25T15:06:27;7.97;;;2.37;;
5898;SDS011;2975;50.956;6.962;2022-11-25T15:08:57;7.47;;;2.07;;
5898;SDS011;2975;50.956;6.962;2022-11-25T15:11:24;12.73;;;2.53;;
5898;SDS011;2975;50.956;6.962;2022-11-25T15:14:05;10.70;;;3.10;;
5898;SDS011;2975;50.956;6.962;2022-11-25T15:16:35;10.07;;;2.63;;
5898;SDS011;2975;50.956;6.962;2022-11-25T15:19:04;11.10;;;2.27;;
5898;SDS011;2975;50.956;6.962;2022-11-25T15:21:37;8.00;;;2.73;;
5898;SDS011;2975;50.956;6.962;2022-11-25T15:24:04;11.10;;;2.17;;
5898;SDS011;2975;50.956;6.962;2022-11-25T15:26:32;10.07;;;2.63;;
5898;SDS011;2975;50.956;6.962;2022-11-25T15:29:03;12.23;;;3.17;;
5898;SDS011;2975;50.956;6.962;2022-11-25T15:31:35;12.03;;;3.00;;
5898;SDS011;2975;50.956;6.962;2022-11-25T15:34:03;9.63;;;2.57;;
5898;SDS011;2975;50.956;6.962;2022-11-25T15:36:31;8.23;;;2.17;;
5898;SDS011;2975;50.956;6.962;2022-11-25T15:39:22;7.53;;;2.37;;
5898;SDS011;2975;50.956;6.962;2022-11-25T15:41:50;9.20;;;2.37;;
5898;SDS011;2975;50.956;6.962;2022-11-25T15:44:25;7.37;;;2.20;;
5898;SDS011;2975;50.956;6.962;2022-11-25T15:49:26;8.73;;;2.03;;
5898;SDS011;2975;50.956;6.962;2022-11-25T15:51:59;11.87;;;2.33;;
5898;SDS011;2975;50.956;6.962;2022-11-25T15:54:39;6.23;;;1.67;;
5898;SDS011;2975;50.956;6.962;2022-11-25T15:57:21;9.40;;;2.35;;
5898;SDS011;2975;50.956;6.962;2022-11-25T16:10:23;13.27;;;2.30;;
5898;SDS011;2975;50.956;6.962;2022-11-25T16:18:21;7.57;;;3.47;;
5898;SDS011;2975;50.956;6.962;2022-11-25T16:20:52;9.23;;;3.10;;
5898;SDS011;2975;50.956;6.962;2022-11-25T16:23:21;4.90;;;2.30;;
5898;SDS011;2975;50.956;6.962;2022-11-25T16:25:53;9.43;;;2.83;;
5898;SDS011;2975;50.956;6.962;2022-11-25T16:28:29;13.60;;;2.73;;
5898;SDS011;2975;50.956;6.962;2022-11-25T16:30:55;7.93;;;2.53;;
5898;SDS011;2975;50.956;6.962;2022-11-25T16:33:25;9.73;;;2.10;;
5898;SDS011;2975;50.956;6.962;2022-11-25T16:35:51;7.07;;;2.20;;
5898;SDS011;2975;50.956;6.962;2022-11-25T16:38:17;12.57;;;2.33;;
5898;SDS011;2975;50.956;6.962;2022-11-25T16:40:42;7.93;;;2.27;;
5898;SDS011;2975;50.956;6.962;2022-11-25T16:43:14;10.93;;;2.03;;
5898;SDS011;2975;50.956;6.962;2022-11-25T16:45:47;9.00;;;2.30;;
5898;SDS011;2975;50.956;6.962;2022-11-25T16:48:15;11.10;;;2.10;;
5898;SDS011;2975;50.956;6.962;2022-11-25T16:50:43;7.00;;;1.83;;
5898;SDS011;2975;50.956;6.962;2022-11-25T16:53:09;7.00;;;2.00;;
5898;SDS011;2975;50.956;6.962;2022-11-25T16:55:35;9.73;;;2.40;;
5898;SDS011;2975;50.956;6.962;2022-11-25T16:58:04;9.07;;;2.03;;
5898;SDS011;2975;50.956;6.962;2022-11-25T17:00:46;8.83;;;2.17;;
5898;SDS011;2975;50.956;6.962;2022-11-25T17:03:15;18.67;;;3.33;;
5898;SDS011;2975;50.956;6.962;2022-11-25T17:05:41;8.40;;;2.93;;
5898;SDS011;2975;50.956;6.962;2022-11-25T17:08:07;8.10;;;2.87;;
5898;SDS011;2975;50.956;6.962;2022-11-25T17:10:32;10.63;;;2.57;;
5898;SDS011;2975;50.956;6.962;2022-11-25T17:12:59;8.23;;;2.40;;
5898;SDS011;2975;50.956;6.962;2022-11-25T17:15:31;7.63;;;2.30;;
5898;SDS011;2975;50.956;6.962;2022-11-25T17:17:59;9.20;;;2.53;;
5898;SDS011;2975;50.956;6.962;2022-11-25T17:20:26;6.17;;;2.33;;
5898;SDS011;2975;50.956;6.962;2022-11-25T17:22:52;9.57;;;2.53;;
5898;SDS011;2975;50.956;6.962;2022-11-25T17:25:18;7.17;;;2.30;;
5898;SDS011;2975;50.956;6.962;2022-11-25T17:27:47;8.00;;;2.07;;
5898;SDS011;2975;50.956;6.962;2022-11-25T17:30:19;6.53;;;2.20;;
5898;SDS011;2975;50.956;6.962;2022-11-25T17:33:02;7.87;;;2.50;;
5898;SDS011;2975;50.956;6.962;2022-11-25T17:35:31;7.17;;;2.43;;